sensor_id;sensor_type;location;lat;lon;timestamp;P1;durP1;ratioP1;P2;durP2;ratioP2
60675;SDS011;46716;38.014;-7.874;2022-07-01T00:01:24;6.32;;;1.73;;
60675;SDS011;46716;38.014;-7.874;2022-07-01T00:03:25;7.18;;;1.60;;
60675;SDS011;46716;38.014;-7.874;2022-07-01T00:05:26;6.68;;;1.67;;
60675;SDS011;46716;38.014;-7.874;2022-07-01T00:07:26;11.63;;;1.95;;
60675;SDS011;46716;38.014;-7.874;2022-07-01T00:09:27;6.28;;;1.50;;
60675;SDS011;46716;38.014;-7.874;2022-07-01T00:11:28;9.27;;;1.63;;
60675;SDS011;46716;38.014;-7.874;2022-07-01T00:13:29;8.05;;;2.00;;
60675;SDS011;46716;38.014;-7.874;2022-07-01T00:15:30;14.40;;;2.70;;
60675;SDS011;46716;38.014;-7.874;2022-07-01T00:17:31;6.70;;;1.67;;
60675;SDS011;46716;38.014;-7.874;2022-07-01T00:19:32;11.93;;;1.80;;
60675;SDS011;46716;38.014;-7.874;2022-07-01T00:21:33;8.85;;;1.42;;
60675;SDS011;46716;38.014;-7.874;2022-07-01T00:23:34;9.25;;;1.60;;
60675;SDS011;46716;38.014;-7.874;2022-07-01T00:25:35;5.68;;;1.83;;
60675;SDS011;46716;38.014;-7.874;2022-07-01T00:27:37;9.98;;;1.83;;
60675;SDS011;46716;38.014;-7.874;2022-07-01T00:29:39;12.18;;;1.90;;
60675;SDS011;46716;38.014;-7.874;2022-07-01T00:31:40;10.65;;;1.88;;
60675;SDS011;46716;38.014;-7.874;2022-07-01T00:33:41;8.30;;;1.80;;
60675;SDS011;46716;38.014;-7.874;2022-07-01T00:35:42;7.60;;;1.50;;
60675;SDS011;46716;38.014;-7.874;2022-07-01T00:37:43;5.78;;;1.75;;
60675;SDS011;46716;38.014;-7.874;2022-07-01T00:39:44;8.30;;;1.80;;
60675;SDS011;46716;38.014;-7.874;2022-07-01T00:41:45;7.20;;;1.60;;
60675;SDS011;46716;38.014;-7.874;2022-07-01T00:43:46;6.95;;;1.70;;
60675;SDS011;46716;38.014;-7.874;2022-07-01T00:45:47;11.10;;;1.95;;
60675;SDS011;46716;38.014;-7.874;2022-07-01T00:47:49;6.68;;;1.80;;
60675;SDS011;46716;38.014;-7.874;2022-07-01T00:49:50;9.40;;;2.13;;
60675;SDS011;46716;38.014;-7.874;2022-07-01T00:51:52;6.55;;;2.08;;
60675;SDS011;46716;38.014;-7.874;2022-07-01T00:53:53;6.60;;;1.73;;
60675;SDS011;46716;38.014;-7.874;2022-07-01T00:55:55;7.22;;;1.58;;
60675;SDS011;46716;38.014;-7.874;2022-07-01T00:57:56;7.10;;;1.88;;
60675;SDS011;46716;38.014;-7.874;2022-07-01T00:59:57;6.50;;;1.52;;
60675;SDS011;46716;38.014;-7.874;2022-07-01T01:01:59;9.82;;;1.98;;
60675;SDS011;46716;38.014;-7.874;2022-07-01T01:04:00;5.78;;;1.70;;
60675;SDS011;46716;38.014;-7.874;2022-07-01T01:06:02;10.73;;;1.88;;
60675;SDS011;46716;38.014;-7.874;2022-07-01T01:08:04;10.63;;;1.85;;
60675;SDS011;46716;38.014;-7.874;2022-07-01T01:10:07;9.48;;;1.50;;
60675;SDS011;46716;38.014;-7.874;2022-07-01T01:12:09;7.13;;;2.00;;
60675;SDS011;46716;38.014;-7.874;2022-07-01T01:14:11;6.95;;;1.92;;
60675;SDS011;46716;38.014;-7.874;2022-07-01T01:16:17;8.07;;;1.50;;
60675;SDS011;46716;38.014;-7.874;2022-07-01T01:18:19;10.00;;;1.50;;
60675;SDS011;46716;38.014;-7.874;2022-07-01T01:20:20;11.13;;;1.80;;
60675;SDS011;46716;38.014;-7.874;2022-07-01T01:22:21;11.35;;;1.92;;
60675;SDS011;46716;38.014;-7.874;2022-07-01T01:24:22;7.03;;;2.20;;
60675;SDS011;46716;38.014;-7.874;2022-07-01T01:26:23;8.65;;;1.88;;
60675;SDS011;46716;38.014;-7.874;2022-07-01T01:28:25;10.45;;;2.10;;
60675;SDS011;46716;38.014;-7.874;2022-07-01T01:30:26;5.38;;;1.77;;
60675;SDS011;46716;38.014;-7.874;2022-07-01T01:32:27;9.75;;;1.98;;
60675;SDS011;46716;38.014;-7.874;2022-07-01T01:34:28;6.65;;;2.00;;
60675;SDS011;46716;38.014;-7.874;2022-07-01T01:36:29;10.50;;;2.08;;
60675;SDS011;46716;38.014;-7.874;2022-07-01T01:38:31;9.90;;;2.13;;
60675;SDS011;46716;38.014;-7.874;2022-07-01T01:40:33;7.45;;;2.20;;
60675;SDS011;46716;38.014;-7.874;2022-07-01T01:42:34;6.18;;;1.77;;
60675;SDS011;46716;38.014;-7.874;2022-07-01T01:44:36;9.68;;;2.00;;
60675;SDS011;46716;38.014;-7.874;2022-07-01T01:46:36;8.63;;;2.17;;
60675;SDS011;46716;38.014;-7.874;2022-07-01T01:48:38;16.03;;;2.60;;
60675;SDS011;46716;38.014;-7.874;2022-07-01T01:50:39;9.50;;;2.45;;
60675;SDS011;46716;38.014;-7.874;2022-07-01T01:52:40;12.27;;;2.28;;
60675;SDS011;46716;38.014;-7.874;2022-07-01T01:54:43;7.72;;;2.28;;
60675;SDS011;46716;38.014;-7.874;2022-07-01T01:56:44;5.28;;;2.03;;
60675;SDS011;46716;38.014;-7.874;2022-07-01T01:58:45;10.48;;;2.10;;
60675;SDS011;46716;38.014;-7.874;2022-07-01T02:00:46;10.48;;;2.10;;
60675;SDS011;46716;38.014;-7.874;2022-07-01T02:02:47;7.30;;;2.17;;
60675;SDS011;46716;38.014;-7.874;2022-07-01T02:04:49;7.55;;;2.45;;
60675;SDS011;46716;38.014;-7.874;2022-07-01T02:06:52;11.38;;;2.10;;
60675;SDS011;46716;38.014;-7.874;2022-07-01T02:08:53;10.17;;;2.13;;
60675;SDS011;46716;38.014;-7.874;2022-07-01T02:10:54;14.30;;;2.53;;
60675;SDS011;46716;38.014;-7.874;2022-07-01T02:12:55;9.38;;;2.03;;
60675;SDS011;46716;38.014;-7.874;2022-07-01T02:14:56;7.43;;;2.58;;
60675;SDS011;46716;38.014;-7.874;2022-07-01T02:16:57;10.82;;;2.20;;
60675;SDS011;46716;38.014;-7.874;2022-07-01T02:18:58;6.28;;;2.47;;
60675;SDS011;46716;38.014;-7.874;2022-07-01T02:20:59;10.63;;;2.13;;
60675;SDS011;46716;38.014;-7.874;2022-07-01T02:23:00;8.68;;;2.17;;
60675;SDS011;46716;38.014;-7.874;2022-07-01T02:25:00;10.80;;;2.63;;
60675;SDS011;46716;38.014;-7.874;2022-07-01T02:27:01;9.10;;;1.98;;
60675;SDS011;46716;38.014;-7.874;2022-07-01T02:29:03;9.35;;;2.53;;
60675;SDS011;46716;38.014;-7.874;2022-07-01T02:31:04;13.13;;;2.10;;
60675;SDS011;46716;38.014;-7.874;2022-07-01T02:33:05;8.88;;;1.95;;
60675;SDS011;46716;38.014;-7.874;2022-07-01T02:35:07;7.80;;;1.85;;
60675;SDS011;46716;38.014;-7.874;2022-07-01T02:37:08;10.10;;;2.47;;
60675;SDS011;46716;38.014;-7.874;2022-07-01T02:39:09;8.18;;;1.70;;
60675;SDS011;46716;38.014;-7.874;2022-07-01T02:41:12;9.75;;;2.60;;
60675;SDS011;46716;38.014;-7.874;2022-07-01T02:43:12;8.43;;;2.10;;
60675;SDS011;46716;38.014;-7.874;2022-07-01T02:45:15;7.40;;;1.98;;
60675;SDS011;46716;38.014;-7.874;2022-07-01T02:47:16;7.75;;;1.65;;
60675;SDS011;46716;38.014;-7.874;2022-07-01T02:49:17;9.27;;;2.28;;
60675;SDS011;46716;38.014;-7.874;2022-07-01T02:51:18;6.97;;;2.55;;
60675;SDS011;46716;38.014;-7.874;2022-07-01T02:53:19;10.23;;;1.80;;
60675;SDS011;46716;38.014;-7.874;2022-07-01T02:55:20;10.45;;;2.13;;
60675;SDS011;46716;38.014;-7.874;2022-07-01T02:57:22;9.15;;;2.20;;
60675;SDS011;46716;38.014;-7.874;2022-07-01T02:59:23;7.47;;;2.23;;
60675;SDS011;46716;38.014;-7.874;2022-07-01T03:01:24;6.25;;;1.85;;
60675;SDS011;46716;38.014;-7.874;2022-07-01T03:03:25;7.85;;;2.30;;
60675;SDS011;46716;38.014;-7.874;2022-07-01T03:05:26;8.05;;;2.10;;
60675;SDS011;46716;38.014;-7.874;2022-07-01T03:07:27;6.20;;;2.22;;
60675;SDS011;46716;38.014;-7.874;2022-07-01T03:09:28;7.88;;;2.40;;
60675;SDS011;46716;38.014;-7.874;2022-07-01T03:11:28;6.63;;;1.75;;
60675;SDS011;46716;38.014;-7.874;2022-07-01T03:13:29;8.50;;;1.92;;
60675;SDS011;46716;38.014;-7.874;2022-07-01T03:15:30;7.90;;;2.20;;
60675;SDS011;46716;38.014;-7.874;2022-07-01T03:17:32;8.70;;;2.15;;
60675;SDS011;46716;38.014;-7.874;2022-07-01T03:19:34;8.15;;;2.10;;
60675;SDS011;46716;38.014;-7.874;2022-07-01T03:21:35;9.95;;;2.22;;
60675;SDS011;46716;38.014;-7.874;2022-07-01T03:23:36;8.85;;;2.08;;
60675;SDS011;46716;38.014;-7.874;2022-07-01T03:25:37;9.23;;;2.00;;
60675;SDS011;46716;38.014;-7.874;2022-07-01T03:27:37;7.53;;;2.40;;
60675;SDS011;46716;38.014;-7.874;2022-07-01T03:29:41;9.02;;;2.17;;
60675;SDS011;46716;38.014;-7.874;2022-07-01T03:31:42;6.88;;;2.00;;
60675;SDS011;46716;38.014;-7.874;2022-07-01T03:33:43;9.75;;;1.90;;
60675;SDS011;46716;38.014;-7.874;2022-07-01T03:35:44;12.40;;;2.00;;
60675;SDS011;46716;38.014;-7.874;2022-07-01T03:37:48;10.05;;;1.95;;
60675;SDS011;46716;38.014;-7.874;2022-07-01T03:39:50;9.68;;;2.30;;
60675;SDS011;46716;38.014;-7.874;2022-07-01T03:41:51;9.32;;;2.47;;
60675;SDS011;46716;38.014;-7.874;2022-07-01T03:43:52;8.05;;;2.42;;
60675;SDS011;46716;38.014;-7.874;2022-07-01T03:45:53;7.85;;;2.40;;
60675;SDS011;46716;38.014;-7.874;2022-07-01T03:47:54;11.13;;;2.15;;
60675;SDS011;46716;38.014;-7.874;2022-07-01T03:49:55;6.95;;;1.90;;
60675;SDS011;46716;38.014;-7.874;2022-07-01T03:51:56;8.35;;;2.03;;
60675;SDS011;46716;38.014;-7.874;2022-07-01T03:53:57;8.27;;;2.38;;
60675;SDS011;46716;38.014;-7.874;2022-07-01T03:56:16;7.65;;;2.15;;
60675;SDS011;46716;38.014;-7.874;2022-07-01T03:58:17;8.18;;;2.38;;
60675;SDS011;46716;38.014;-7.874;2022-07-01T04:00:18;7.82;;;2.60;;
60675;SDS011;46716;38.014;-7.874;2022-07-01T04:02:18;7.18;;;2.08;;
60675;SDS011;46716;38.014;-7.874;2022-07-01T04:04:19;6.75;;;2.13;;
60675;SDS011;46716;38.014;-7.874;2022-07-01T04:06:20;9.52;;;2.25;;
60675;SDS011;46716;38.014;-7.874;2022-07-01T04:08:22;11.63;;;2.38;;
60675;SDS011;46716;38.014;-7.874;2022-07-01T04:10:23;10.07;;;2.40;;
60675;SDS011;46716;38.014;-7.874;2022-07-01T04:12:24;8.50;;;1.88;;
60675;SDS011;46716;38.014;-7.874;2022-07-01T04:14:25;8.13;;;2.47;;
60675;SDS011;46716;38.014;-7.874;2022-07-01T04:16:26;7.38;;;2.55;;
60675;SDS011;46716;38.014;-7.874;2022-07-01T04:18:27;10.05;;;3.97;;
60675;SDS011;46716;38.014;-7.874;2022-07-01T04:20:29;11.33;;;2.53;;
60675;SDS011;46716;38.014;-7.874;2022-07-01T04:22:29;9.27;;;2.08;;
60675;SDS011;46716;38.014;-7.874;2022-07-01T04:24:33;14.15;;;2.35;;
60675;SDS011;46716;38.014;-7.874;2022-07-01T04:26:34;8.50;;;2.95;;
60675;SDS011;46716;38.014;-7.874;2022-07-01T04:28:35;7.97;;;2.47;;
60675;SDS011;46716;38.014;-7.874;2022-07-01T04:30:36;9.32;;;3.13;;
60675;SDS011;46716;38.014;-7.874;2022-07-01T04:32:37;10.00;;;3.08;;
60675;SDS011;46716;38.014;-7.874;2022-07-01T04:34:38;7.22;;;2.38;;
60675;SDS011;46716;38.014;-7.874;2022-07-01T04:36:39;9.38;;;2.70;;
60675;SDS011;46716;38.014;-7.874;2022-07-01T04:38:40;6.65;;;2.10;;
60675;SDS011;46716;38.014;-7.874;2022-07-01T04:40:41;10.50;;;2.22;;
60675;SDS011;46716;38.014;-7.874;2022-07-01T04:43:02;8.18;;;2.40;;
60675;SDS011;46716;38.014;-7.874;2022-07-01T04:45:03;10.00;;;2.85;;
60675;SDS011;46716;38.014;-7.874;2022-07-01T04:47:04;9.57;;;2.40;;
60675;SDS011;46716;38.014;-7.874;2022-07-01T04:49:05;10.00;;;2.38;;
60675;SDS011;46716;38.014;-7.874;2022-07-01T04:51:07;12.83;;;2.97;;
60675;SDS011;46716;38.014;-7.874;2022-07-01T04:53:08;11.27;;;2.40;;
60675;SDS011;46716;38.014;-7.874;2022-07-01T04:55:09;8.85;;;2.78;;
60675;SDS011;46716;38.014;-7.874;2022-07-01T04:57:10;6.00;;;2.10;;
60675;SDS011;46716;38.014;-7.874;2022-07-01T04:59:11;9.75;;;2.40;;
60675;SDS011;46716;38.014;-7.874;2022-07-01T05:01:13;8.73;;;2.58;;
60675;SDS011;46716;38.014;-7.874;2022-07-01T05:03:14;10.45;;;2.38;;
60675;SDS011;46716;38.014;-7.874;2022-07-01T05:05:16;6.15;;;2.40;;
60675;SDS011;46716;38.014;-7.874;2022-07-01T05:07:17;10.00;;;2.70;;
60675;SDS011;46716;38.014;-7.874;2022-07-01T05:09:31;12.57;;;2.53;;
60675;SDS011;46716;38.014;-7.874;2022-07-01T05:11:32;11.27;;;2.60;;
60675;SDS011;46716;38.014;-7.874;2022-07-01T05:13:33;8.95;;;2.15;;
60675;SDS011;46716;38.014;-7.874;2022-07-01T05:15:34;9.98;;;2.60;;
60675;SDS011;46716;38.014;-7.874;2022-07-01T05:17:35;7.47;;;2.45;;
60675;SDS011;46716;38.014;-7.874;2022-07-01T05:19:54;11.32;;;2.80;;
60675;SDS011;46716;38.014;-7.874;2022-07-01T05:22:14;9.00;;;2.88;;
60675;SDS011;46716;38.014;-7.874;2022-07-01T05:24:14;10.85;;;2.67;;
60675;SDS011;46716;38.014;-7.874;2022-07-01T05:26:16;8.55;;;2.53;;
60675;SDS011;46716;38.014;-7.874;2022-07-01T05:28:17;9.65;;;3.33;;
60675;SDS011;46716;38.014;-7.874;2022-07-01T05:30:18;6.70;;;2.40;;
60675;SDS011;46716;38.014;-7.874;2022-07-01T05:32:19;6.97;;;2.42;;
60675;SDS011;46716;38.014;-7.874;2022-07-01T05:34:20;10.45;;;2.55;;
60675;SDS011;46716;38.014;-7.874;2022-07-01T05:36:21;9.50;;;2.67;;
60675;SDS011;46716;38.014;-7.874;2022-07-01T05:38:22;16.13;;;2.85;;
60675;SDS011;46716;38.014;-7.874;2022-07-01T05:40:23;7.07;;;2.58;;
60675;SDS011;46716;38.014;-7.874;2022-07-01T05:42:24;13.27;;;2.80;;
60675;SDS011;46716;38.014;-7.874;2022-07-01T05:44:25;11.85;;;2.75;;
60675;SDS011;46716;38.014;-7.874;2022-07-01T05:46:26;10.57;;;2.50;;
60675;SDS011;46716;38.014;-7.874;2022-07-01T05:48:27;10.95;;;2.95;;
60675;SDS011;46716;38.014;-7.874;2022-07-01T05:50:28;11.70;;;3.15;;
60675;SDS011;46716;38.014;-7.874;2022-07-01T05:52:29;12.43;;;2.55;;
60675;SDS011;46716;38.014;-7.874;2022-07-01T05:54:30;14.50;;;2.88;;
60675;SDS011;46716;38.014;-7.874;2022-07-01T05:56:31;7.20;;;2.10;;
60675;SDS011;46716;38.014;-7.874;2022-07-01T05:58:33;7.50;;;1.90;;
60675;SDS011;46716;38.014;-7.874;2022-07-01T06:00:34;8.65;;;2.25;;
60675;SDS011;46716;38.014;-7.874;2022-07-01T06:02:35;8.63;;;2.40;;
60675;SDS011;46716;38.014;-7.874;2022-07-01T06:04:36;11.05;;;2.85;;
60675;SDS011;46716;38.014;-7.874;2022-07-01T06:06:37;8.90;;;2.50;;
60675;SDS011;46716;38.014;-7.874;2022-07-01T06:08:38;10.48;;;2.47;;
60675;SDS011;46716;38.014;-7.874;2022-07-01T06:10:40;10.35;;;2.38;;
60675;SDS011;46716;38.014;-7.874;2022-07-01T06:12:41;7.15;;;2.08;;
60675;SDS011;46716;38.014;-7.874;2022-07-01T06:14:42;12.98;;;2.28;;
60675;SDS011;46716;38.014;-7.874;2022-07-01T06:16:43;7.93;;;2.45;;
60675;SDS011;46716;38.014;-7.874;2022-07-01T06:18:44;7.20;;;2.10;;
60675;SDS011;46716;38.014;-7.874;2022-07-01T06:20:45;7.90;;;2.17;;
60675;SDS011;46716;38.014;-7.874;2022-07-01T06:22:46;7.57;;;2.83;;
60675;SDS011;46716;38.014;-7.874;2022-07-01T06:24:47;7.93;;;2.13;;
60675;SDS011;46716;38.014;-7.874;2022-07-01T06:26:48;9.40;;;2.65;;
60675;SDS011;46716;38.014;-7.874;2022-07-01T06:28:49;7.63;;;2.38;;
60675;SDS011;46716;38.014;-7.874;2022-07-01T06:30:50;7.55;;;2.40;;
60675;SDS011;46716;38.014;-7.874;2022-07-01T06:32:55;6.22;;;2.13;;
60675;SDS011;46716;38.014;-7.874;2022-07-01T06:34:55;8.60;;;2.15;;
60675;SDS011;46716;38.014;-7.874;2022-07-01T06:36:56;7.72;;;2.60;;
60675;SDS011;46716;38.014;-7.874;2022-07-01T06:39:00;12.70;;;2.20;;
60675;SDS011;46716;38.014;-7.874;2022-07-01T06:41:01;10.57;;;2.30;;
60675;SDS011;46716;38.014;-7.874;2022-07-01T06:43:20;8.85;;;2.75;;
60675;SDS011;46716;38.014;-7.874;2022-07-01T06:45:21;10.15;;;2.03;;
60675;SDS011;46716;38.014;-7.874;2022-07-01T06:47:22;10.30;;;2.50;;
60675;SDS011;46716;38.014;-7.874;2022-07-01T06:49:23;5.97;;;2.00;;
60675;SDS011;46716;38.014;-7.874;2022-07-01T06:51:25;11.30;;;2.30;;
60675;SDS011;46716;38.014;-7.874;2022-07-01T06:53:29;6.68;;;2.08;;
60675;SDS011;46716;38.014;-7.874;2022-07-01T06:55:30;10.65;;;2.80;;
60675;SDS011;46716;38.014;-7.874;2022-07-01T06:57:31;7.82;;;1.90;;
60675;SDS011;46716;38.014;-7.874;2022-07-01T06:59:32;6.78;;;1.55;;
60675;SDS011;46716;38.014;-7.874;2022-07-01T07:01:33;8.23;;;1.92;;
60675;SDS011;46716;38.014;-7.874;2022-07-01T07:03:34;8.95;;;2.15;;
60675;SDS011;46716;38.014;-7.874;2022-07-01T07:05:35;8.73;;;2.30;;
60675;SDS011;46716;38.014;-7.874;2022-07-01T07:07:37;6.80;;;1.83;;
60675;SDS011;46716;38.014;-7.874;2022-07-01T07:09:38;14.13;;;2.22;;
60675;SDS011;46716;38.014;-7.874;2022-07-01T07:11:38;8.90;;;1.92;;
60675;SDS011;46716;38.014;-7.874;2022-07-01T07:13:40;5.53;;;1.90;;
60675;SDS011;46716;38.014;-7.874;2022-07-01T07:15:41;9.75;;;1.95;;
60675;SDS011;46716;38.014;-7.874;2022-07-01T07:17:42;7.30;;;1.75;;
60675;SDS011;46716;38.014;-7.874;2022-07-01T07:19:43;13.63;;;2.05;;
60675;SDS011;46716;38.014;-7.874;2022-07-01T07:21:44;5.72;;;1.83;;
60675;SDS011;46716;38.014;-7.874;2022-07-01T07:23:45;7.40;;;1.92;;
60675;SDS011;46716;38.014;-7.874;2022-07-01T07:25:46;8.27;;;1.42;;
60675;SDS011;46716;38.014;-7.874;2022-07-01T07:27:47;12.18;;;1.90;;
60675;SDS011;46716;38.014;-7.874;2022-07-01T07:29:48;11.48;;;2.13;;
60675;SDS011;46716;38.014;-7.874;2022-07-01T07:31:48;5.03;;;1.70;;
60675;SDS011;46716;38.014;-7.874;2022-07-01T07:33:49;7.13;;;1.60;;
60675;SDS011;46716;38.014;-7.874;2022-07-01T07:35:50;11.80;;;1.90;;
60675;SDS011;46716;38.014;-7.874;2022-07-01T07:37:51;5.50;;;1.77;;
60675;SDS011;46716;38.014;-7.874;2022-07-01T07:39:52;4.72;;;1.80;;
60675;SDS011;46716;38.014;-7.874;2022-07-01T07:41:53;10.38;;;1.70;;
60675;SDS011;46716;38.014;-7.874;2022-07-01T07:43:54;8.60;;;1.70;;
60675;SDS011;46716;38.014;-7.874;2022-07-01T07:45:55;7.78;;;1.60;;
60675;SDS011;46716;38.014;-7.874;2022-07-01T07:47:56;12.38;;;1.85;;
60675;SDS011;46716;38.014;-7.874;2022-07-01T07:49:57;9.18;;;1.90;;
60675;SDS011;46716;38.014;-7.874;2022-07-01T07:51:57;6.53;;;1.60;;
60675;SDS011;46716;38.014;-7.874;2022-07-01T07:53:58;5.15;;;1.45;;
60675;SDS011;46716;38.014;-7.874;2022-07-01T07:56:01;8.88;;;1.95;;
60675;SDS011;46716;38.014;-7.874;2022-07-01T07:58:04;4.85;;;1.67;;
60675;SDS011;46716;38.014;-7.874;2022-07-01T08:00:07;3.08;;;1.17;;
60675;SDS011;46716;38.014;-7.874;2022-07-01T08:02:12;8.35;;;1.58;;
60675;SDS011;46716;38.014;-7.874;2022-07-01T08:04:14;7.85;;;1.60;;
60675;SDS011;46716;38.014;-7.874;2022-07-01T08:06:15;6.97;;;1.50;;
60675;SDS011;46716;38.014;-7.874;2022-07-01T08:08:15;5.65;;;1.73;;
60675;SDS011;46716;38.014;-7.874;2022-07-01T08:10:16;5.82;;;1.80;;
60675;SDS011;46716;38.014;-7.874;2022-07-01T08:12:17;3.92;;;1.58;;
60675;SDS011;46716;38.014;-7.874;2022-07-01T08:14:18;4.10;;;1.50;;
60675;SDS011;46716;38.014;-7.874;2022-07-01T08:16:19;6.50;;;1.42;;
60675;SDS011;46716;38.014;-7.874;2022-07-01T08:18:20;7.65;;;1.58;;
60675;SDS011;46716;38.014;-7.874;2022-07-01T08:20:21;5.88;;;1.52;;
60675;SDS011;46716;38.014;-7.874;2022-07-01T08:22:22;5.03;;;1.38;;
60675;SDS011;46716;38.014;-7.874;2022-07-01T08:24:24;5.07;;;1.35;;
60675;SDS011;46716;38.014;-7.874;2022-07-01T08:26:25;4.43;;;1.10;;
60675;SDS011;46716;38.014;-7.874;2022-07-01T08:28:25;7.78;;;1.55;;
60675;SDS011;46716;38.014;-7.874;2022-07-01T08:30:26;7.68;;;1.40;;
60675;SDS011;46716;38.014;-7.874;2022-07-01T08:32:27;5.20;;;1.45;;
60675;SDS011;46716;38.014;-7.874;2022-07-01T08:34:30;4.03;;;1.35;;
60675;SDS011;46716;38.014;-7.874;2022-07-01T08:36:31;7.55;;;1.48;;
60675;SDS011;46716;38.014;-7.874;2022-07-01T08:38:32;6.93;;;1.40;;
60675;SDS011;46716;38.014;-7.874;2022-07-01T08:40:33;6.80;;;1.48;;
60675;SDS011;46716;38.014;-7.874;2022-07-01T08:42:35;5.40;;;1.38;;
60675;SDS011;46716;38.014;-7.874;2022-07-01T08:44:35;5.75;;;1.48;;
60675;SDS011;46716;38.014;-7.874;2022-07-01T08:46:37;5.28;;;1.75;;
60675;SDS011;46716;38.014;-7.874;2022-07-01T08:48:41;5.25;;;1.30;;
60675;SDS011;46716;38.014;-7.874;2022-07-01T08:50:43;7.68;;;1.27;;
60675;SDS011;46716;38.014;-7.874;2022-07-01T08:52:44;4.72;;;1.13;;
60675;SDS011;46716;38.014;-7.874;2022-07-01T08:54:45;3.08;;;1.13;;
60675;SDS011;46716;38.014;-7.874;2022-07-01T08:56:46;4.53;;;1.48;;
60675;SDS011;46716;38.014;-7.874;2022-07-01T08:58:50;4.50;;;1.33;;
60675;SDS011;46716;38.014;-7.874;2022-07-01T09:00:51;6.70;;;1.40;;
60675;SDS011;46716;38.014;-7.874;2022-07-01T09:02:54;5.00;;;1.30;;
60675;SDS011;46716;38.014;-7.874;2022-07-01T09:05:04;6.90;;;1.70;;
60675;SDS011;46716;38.014;-7.874;2022-07-01T09:07:11;6.50;;;1.60;;
60675;SDS011;46716;38.014;-7.874;2022-07-01T09:09:18;6.07;;;1.23;;
60675;SDS011;46716;38.014;-7.874;2022-07-01T09:11:21;7.85;;;1.42;;
60675;SDS011;46716;38.014;-7.874;2022-07-01T09:13:24;5.63;;;1.42;;
60675;SDS011;46716;38.014;-7.874;2022-07-01T09:15:27;4.10;;;1.05;;
60675;SDS011;46716;38.014;-7.874;2022-07-01T09:17:30;5.65;;;1.17;;
60675;SDS011;46716;38.014;-7.874;2022-07-01T09:19:34;6.25;;;1.27;;
60675;SDS011;46716;38.014;-7.874;2022-07-01T09:21:37;5.57;;;1.80;;
60675;SDS011;46716;38.014;-7.874;2022-07-01T09:23:38;4.38;;;1.05;;
60675;SDS011;46716;38.014;-7.874;2022-07-01T09:25:43;7.18;;;1.48;;
60675;SDS011;46716;38.014;-7.874;2022-07-01T09:28:01;5.03;;;1.23;;
60675;SDS011;46716;38.014;-7.874;2022-07-01T09:30:09;3.22;;;1.13;;
60675;SDS011;46716;38.014;-7.874;2022-07-01T09:32:10;3.83;;;1.13;;
60675;SDS011;46716;38.014;-7.874;2022-07-01T09:34:13;7.90;;;1.02;;
60675;SDS011;46716;38.014;-7.874;2022-07-01T09:36:14;4.60;;;1.10;;
60675;SDS011;46716;38.014;-7.874;2022-07-01T09:38:17;5.90;;;1.05;;
60675;SDS011;46716;38.014;-7.874;2022-07-01T09:40:20;4.20;;;0.98;;
60675;SDS011;46716;38.014;-7.874;2022-07-01T09:42:22;4.65;;;1.42;;
60675;SDS011;46716;38.014;-7.874;2022-07-01T09:44:24;5.60;;;1.20;;
60675;SDS011;46716;38.014;-7.874;2022-07-01T09:46:26;4.30;;;1.15;;
60675;SDS011;46716;38.014;-7.874;2022-07-01T09:48:41;4.78;;;1.13;;
60675;SDS011;46716;38.014;-7.874;2022-07-01T09:50:44;6.97;;;1.23;;
60675;SDS011;46716;38.014;-7.874;2022-07-01T09:52:46;5.75;;;1.13;;
60675;SDS011;46716;38.014;-7.874;2022-07-01T09:54:47;11.27;;;1.48;;
60675;SDS011;46716;38.014;-7.874;2022-07-01T09:56:49;4.47;;;1.45;;
60675;SDS011;46716;38.014;-7.874;2022-07-01T09:58:50;4.28;;;1.30;;
60675;SDS011;46716;38.014;-7.874;2022-07-01T10:00:51;5.03;;;1.10;;
60675;SDS011;46716;38.014;-7.874;2022-07-01T10:05:08;6.72;;;1.23;;
60675;SDS011;46716;38.014;-7.874;2022-07-01T10:07:36;6.97;;;1.10;;
60675;SDS011;46716;38.014;-7.874;2022-07-01T10:14:24;4.88;;;1.30;;
60675;SDS011;46716;38.014;-7.874;2022-07-01T10:16:25;4.90;;;1.55;;
60675;SDS011;46716;38.014;-7.874;2022-07-01T10:18:27;8.05;;;1.30;;
60675;SDS011;46716;38.014;-7.874;2022-07-01T10:20:29;4.53;;;1.00;;
60675;SDS011;46716;38.014;-7.874;2022-07-01T10:22:31;6.80;;;1.27;;
60675;SDS011;46716;38.014;-7.874;2022-07-01T10:24:31;2.80;;;1.20;;
60675;SDS011;46716;38.014;-7.874;2022-07-01T10:26:32;6.55;;;1.50;;
60675;SDS011;46716;38.014;-7.874;2022-07-01T10:32:53;5.15;;;1.42;;
60675;SDS011;46716;38.014;-7.874;2022-07-01T10:35:06;6.30;;;1.30;;
60675;SDS011;46716;38.014;-7.874;2022-07-01T10:37:08;5.93;;;1.00;;
60675;SDS011;46716;38.014;-7.874;2022-07-01T10:39:12;5.10;;;1.33;;
60675;SDS011;46716;38.014;-7.874;2022-07-01T10:41:24;5.55;;;0.90;;
60675;SDS011;46716;38.014;-7.874;2022-07-01T10:43:32;5.80;;;1.10;;
60675;SDS011;46716;38.014;-7.874;2022-07-01T10:45:43;4.78;;;1.27;;
60675;SDS011;46716;38.014;-7.874;2022-07-01T10:47:45;3.03;;;0.88;;
60675;SDS011;46716;38.014;-7.874;2022-07-01T10:49:53;1.97;;;0.80;;
60675;SDS011;46716;38.014;-7.874;2022-07-01T10:51:57;4.63;;;1.17;;
60675;SDS011;46716;38.014;-7.874;2022-07-01T10:53:58;7.13;;;1.65;;
60675;SDS011;46716;38.014;-7.874;2022-07-01T10:55:59;7.27;;;1.20;;
60675;SDS011;46716;38.014;-7.874;2022-07-01T10:58:00;4.47;;;1.50;;
60675;SDS011;46716;38.014;-7.874;2022-07-01T11:02:09;6.47;;;2.05;;
60675;SDS011;46716;38.014;-7.874;2022-07-01T11:04:12;2.83;;;0.80;;
60675;SDS011;46716;38.014;-7.874;2022-07-01T11:06:12;3.30;;;1.13;;
60675;SDS011;46716;38.014;-7.874;2022-07-01T11:08:14;3.17;;;0.95;;
60675;SDS011;46716;38.014;-7.874;2022-07-01T11:10:16;4.10;;;1.15;;
60675;SDS011;46716;38.014;-7.874;2022-07-01T11:12:19;2.40;;;0.80;;
60675;SDS011;46716;38.014;-7.874;2022-07-01T11:14:25;3.80;;;0.93;;
60675;SDS011;46716;38.014;-7.874;2022-07-01T11:16:27;4.80;;;1.25;;
60675;SDS011;46716;38.014;-7.874;2022-07-01T11:18:30;4.13;;;1.00;;
60675;SDS011;46716;38.014;-7.874;2022-07-01T11:20:31;3.28;;;0.73;;
60675;SDS011;46716;38.014;-7.874;2022-07-01T11:22:33;3.08;;;1.00;;
60675;SDS011;46716;38.014;-7.874;2022-07-01T11:24:35;1.73;;;0.65;;
60675;SDS011;46716;38.014;-7.874;2022-07-01T11:26:36;4.43;;;1.10;;
60675;SDS011;46716;38.014;-7.874;2022-07-01T11:28:39;4.70;;;0.80;;
60675;SDS011;46716;38.014;-7.874;2022-07-01T11:30:40;3.15;;;1.00;;
60675;SDS011;46716;38.014;-7.874;2022-07-01T11:32:42;3.03;;;1.00;;
60675;SDS011;46716;38.014;-7.874;2022-07-01T11:34:45;4.45;;;0.88;;
60675;SDS011;46716;38.014;-7.874;2022-07-01T11:36:47;4.90;;;0.90;;
60675;SDS011;46716;38.014;-7.874;2022-07-01T11:39:07;2.67;;;0.77;;
60675;SDS011;46716;38.014;-7.874;2022-07-01T11:41:24;3.67;;;0.73;;
60675;SDS011;46716;38.014;-7.874;2022-07-01T11:43:27;2.80;;;0.77;;
60675;SDS011;46716;38.014;-7.874;2022-07-01T11:45:34;2.97;;;0.70;;
60675;SDS011;46716;38.014;-7.874;2022-07-01T11:47:34;1.83;;;0.83;;
60675;SDS011;46716;38.014;-7.874;2022-07-01T11:49:43;4.80;;;0.70;;
60675;SDS011;46716;38.014;-7.874;2022-07-01T11:51:53;1.73;;;0.70;;
60675;SDS011;46716;38.014;-7.874;2022-07-01T11:53:55;1.92;;;0.80;;
60675;SDS011;46716;38.014;-7.874;2022-07-01T11:55:56;3.13;;;0.90;;
60675;SDS011;46716;38.014;-7.874;2022-07-01T12:00:07;2.17;;;0.82;;
60675;SDS011;46716;38.014;-7.874;2022-07-01T12:02:13;4.95;;;0.98;;
60675;SDS011;46716;38.014;-7.874;2022-07-01T12:04:16;9.93;;;1.25;;
60675;SDS011;46716;38.014;-7.874;2022-07-01T12:06:17;3.30;;;0.90;;
60675;SDS011;46716;38.014;-7.874;2022-07-01T12:08:19;8.90;;;0.93;;
60675;SDS011;46716;38.014;-7.874;2022-07-01T12:10:27;1.80;;;0.70;;
60675;SDS011;46716;38.014;-7.874;2022-07-01T12:12:29;4.18;;;0.98;;
60675;SDS011;46716;38.014;-7.874;2022-07-01T12:14:32;3.97;;;0.77;;
60675;SDS011;46716;38.014;-7.874;2022-07-01T12:16:41;2.88;;;0.80;;
60675;SDS011;46716;38.014;-7.874;2022-07-01T12:20:55;2.33;;;0.70;;